Nearby METAR Reports

 

EDNY - Friedrichshafen, Germany
Distance from station: ONO 32km
aktuell: 23.07.2018 12:50
teilweise bewölkt
teilweise bewölkt
 Wind von SSW
Wind: SSW 9 km/h
Temperatur: 21°C
Taupunkt: 17°C
Luftfeuchte: 78%
Luftdruck: 1018 hPa
Clouds: teilweise bewölkt
Visibility: 10 km
Cloud details: Few Clouds 792 m
teilweise bewölkt 1036 m
2018/07/23 10:50 EDNY 231050Z 20005KT 150V240 9999 FEW026 SCT034 21/17 Q1018
LSZR - Rheineck/Altenrh, Switzerland
Distance from station: OSO 37km
aktuell: 23.07.2018 12:50
teilweise bewölkt
teilweise bewölkt
 Wind von WNW
Wind: WNW 9 km/h
Temperatur: 21°C
Taupunkt: 17°C
Luftfeuchte: 78%
Luftdruck: 1019 hPa
Clouds: teilweise bewölkt
Visibility: 10 km
Cloud details: Few Clouds 457 m
teilweise bewölkt 1067 m
2018/07/23 10:50 LSZR 231050Z 30005KT 9999 FEW015 SCT035 21/17 Q1019 NOSIG RMK H
LSMD - Dubendorf, Switzerland
Distance from station: SW 40km
aktuell: 23.07.2018 12:50
stark bewölkt
stark bewölkt
 Wind von varies
Wind: varies 4 km/h
Temperatur: 22°C
Taupunkt: 15°C
Luftfeuchte: 65%
Luftdruck: 1019 hPa
Clouds: stark bewölkt
Visibility: 10 km
Cloud details: Few Clouds 1219 m
stark bewölkt 2134 m
2018/07/23 10:50 LSMD 231050Z VRB02KT 9999 FEW040 BKN070 22/15 Q1019 RMK BLU
 
LSZH - Zurich-Kloten (a, Switzerland
Distance from station: WSW 44km
aktuell: 23.07.2018 12:50
teilweise bewölkt
teilweise bewölkt
 Wind von varies
Wind: varies 6 km/h
Temperatur: 23°C
Taupunkt: 15°C
Luftfeuchte: 61%
Luftdruck: 1019 hPa
Clouds: teilweise bewölkt
Visibility: 10 km
Cloud details: Few Clouds 975 m
teilweise bewölkt 2073 m
2018/07/23 10:50 LSZH 231050Z VRB03KT 9999 FEW032 SCT068 23/15 Q1019 NOSIG
LOIH - Hohenems-Dornbir, Austria
Distance from station: OSO 51km
aktuell: 31.10.2016 17:00
NOT Current
geschlossene Wolkendecke
geschlossene Wolkendecke
 Wind von calm
Wind: Windstill
Temperatur: 10°C
Taupunkt: 9°C
Luftfeuchte: 94%
Luftdruck: 1026 hPa
Clouds: geschlossene Wolkendecke
Cloud details: geschlossene Wolkendecke 305 m
2016/10/31 16:00 LOIH 311600Z 00000KT 10KM OVC010ST 10/09 Q1026 RMK OVC
LSME - Emmen, Switzerland
Distance from station: SW 82km
aktuell: 23.07.2018 12:50
stark bewölkt
stark bewölkt
 Wind von O
Wind: O 7 km/h
Temperatur: 0°C
gefühlte Temperatur: -3°C
Taupunkt: -6°C
Luftfeuchte: 64%
Luftdruck: 1019 hPa
Clouds: stark bewölkt
Visibility: 10 km
Cloud details: teilweise bewölkt 1067 m
teilweise bewölkt 1798 m
stark bewölkt 2042 m
2018/07/23 10:50 LSME 231050Z 08004KT 040V160 9999 SCT035 SCT059 BKN067 00/M06 Q1019 RMK BLU
 
LSZC - Buochs, Switzerland
Distance from station: SW 89km
aktuell: 23.07.2018 12:50
geschlossene Wolkendecke
geschlossene Wolkendecke
 Wind von ONO
Wind: ONO 9 km/h
Temperatur: 21°C
Taupunkt: 15°C
Luftfeuchte: 69%
Luftdruck: 1019 hPa
Clouds: geschlossene Wolkendecke
Visibility: 10 km
Cloud details: geschlossene Wolkendecke 2134 m
2018/07/23 10:50 LSZC 231050Z AUTO 06005KT 9999 OVC070 21/15 Q1019
ETHL - Laupheim (ger-Ar, Germany
Distance from station: NO 92km
aktuell: 23.07.2018 12:20
stark bewölkt
stark bewölkt
 Wind von O
Wind: O 9 km/h
Temperatur: 22°C
Taupunkt: 15°C
Luftfeuchte: 65%
Luftdruck: 1019 hPa
Clouds: stark bewölkt
Visibility: 10 km
Cloud details: Few Clouds 457 m
teilweise bewölkt 2134 m
stark bewölkt 3353 m
2018/07/23 10:20 ETHL 231020Z 09005KT 9999 FEW015 SCT070 BKN110 22/15 Q1019 BLU BLU
EDJA - Memmingen Allgau, Germany
Distance from station: ONO 95km
aktuell: 23.07.2018 12:50
teilweise bewölkt
teilweise bewölkt
 Wind von varies
Wind: varies 7 km/h
Temperatur: 21°C
Taupunkt: 17°C
Luftfeuchte: 78%
Luftdruck: 1019 hPa
Clouds: teilweise bewölkt
Visibility: 10 km
Cloud details: teilweise bewölkt 518 m
2018/07/23 10:50 EDJA 231050Z VRB04KT 9999 SCT017 21/17 Q1019
 
LSMA - Alpnach, Switzerland
Distance from station: SW 95km
aktuell: 23.07.2018 12:50
teilweise bewölkt
teilweise bewölkt
 Wind von NO
Wind: NO 13 km/h
Temperatur: 22°C
Taupunkt: 16°C
Luftfeuchte: 69%
Luftdruck: 1018 hPa
Clouds: teilweise bewölkt
Visibility: 16 miles
Cloud details: teilweise bewölkt 2073 m
2018/07/23 10:50 LSMA 231050Z AUTO 04007KT 9999NDV SCT068 22/16 Q1018 RMK